createdAt,value
2019-05-17T00:00:18.921Z,16.27
2019-05-17T00:02:47.462Z,16.50
2019-05-17T00:05:17.762Z,15.97
2019-05-17T00:07:47.506Z,16.30
2019-05-17T00:10:17.304Z,15.83
2019-05-17T00:12:47.095Z,14.97
2019-05-17T00:15:16.924Z,15.40
2019-05-17T00:17:46.981Z,14.90
2019-05-17T00:20:17.455Z,14.97
2019-05-17T00:22:47.173Z,14.73
2019-05-17T00:25:17.219Z,14.23
2019-05-17T00:27:47.491Z,15.40
2019-05-17T00:30:17.505Z,14.27
2019-05-17T00:32:47.596Z,15.93
2019-05-17T00:35:17.905Z,15.30
2019-05-17T00:37:46.679Z,15.00
2019-05-17T00:40:16.675Z,14.70
2019-05-17T00:42:46.685Z,15.60
2019-05-17T00:45:17.501Z,15.07
2019-05-17T00:47:46.801Z,14.17
2019-05-17T00:50:17.036Z,13.77
2019-05-17T00:52:47.437Z,13.23
2019-05-17T00:55:17.649Z,13.17
2019-05-17T00:57:47.454Z,13.40
2019-05-17T01:00:17.307Z,13.50
2019-05-17T01:02:46.742Z,14.20
2019-05-17T01:05:17.037Z,12.77
2019-05-17T01:07:47.018Z,14.63
2019-05-17T01:10:16.868Z,13.60
2019-05-17T01:12:45.516Z,13.63
2019-05-17T01:15:16.780Z,12.93
2019-05-17T01:17:47.291Z,13.60
2019-05-17T01:20:17.374Z,12.60
2019-05-17T01:22:47.407Z,13.13
2019-05-17T01:25:17.222Z,14.30
2019-05-17T01:27:47.456Z,12.83
2019-05-17T01:30:17.608Z,13.77
2019-05-17T01:32:46.522Z,13.07
2019-05-17T01:35:16.717Z,13.87
2019-05-17T01:37:47.530Z,12.00
2019-05-17T01:40:17.636Z,13.00
2019-05-17T01:42:46.739Z,13.37
2019-05-17T01:45:16.678Z,13.70
2019-05-17T01:47:47.558Z,13.10
2019-05-17T01:50:17.570Z,13.17
2019-05-17T01:52:46.302Z,13.37
2019-05-17T01:55:17.176Z,12.70
2019-05-17T01:57:47.644Z,13.40
2019-05-17T02:00:17.477Z,12.90
2019-05-17T02:02:53.455Z,12.40
2019-05-17T02:05:22.119Z,13.80
2019-05-17T02:07:50.522Z,13.80
2019-05-17T02:10:19.409Z,13.00
2019-05-17T02:12:49.103Z,13.57
2019-05-17T02:15:18.297Z,13.40
2019-05-17T02:17:47.086Z,14.03
2019-05-17T02:20:17.094Z,13.37
2019-05-17T02:22:47.313Z,15.00
2019-05-17T02:25:16.854Z,13.50
2019-05-17T02:27:45.492Z,14.67
2019-05-17T02:30:15.384Z,14.30
2019-05-17T02:32:44.638Z,14.30
2019-05-17T02:35:14.605Z,15.53
2019-05-17T02:37:43.834Z,16.70
2019-05-17T02:40:14.963Z,15.80
2019-05-17T02:42:43.999Z,17.00
2019-05-17T02:45:13.988Z,17.50
2019-05-17T02:47:43.534Z,17.33
2019-05-17T02:50:13.603Z,17.10
2019-05-17T02:52:43.537Z,17.10
2019-05-17T02:55:13.803Z,17.37
2019-05-17T02:57:43.587Z,17.73
2019-05-17T03:00:14.157Z,17.60
2019-05-17T03:02:43.885Z,18.67
2019-05-17T03:05:14.181Z,17.33
2019-05-17T03:07:43.928Z,17.80
2019-05-17T03:10:23.053Z,19.87
2019-05-17T03:12:44.440Z,18.93
2019-05-17T03:15:13.587Z,18.10
2019-05-17T03:17:44.036Z,19.30
2019-05-17T03:20:14.052Z,18.77
2019-05-17T03:22:44.100Z,19.50
2019-05-17T03:25:13.977Z,19.20
2019-05-17T03:27:43.416Z,18.53
2019-05-17T03:30:17.161Z,18.60
2019-05-17T03:32:47.526Z,17.10
2019-05-17T03:35:17.204Z,19.13
2019-05-17T03:37:44.826Z,18.50
2019-05-17T03:40:30.651Z,20.80
2019-05-17T03:42:44.019Z,17.97
2019-05-17T03:45:13.911Z,19.73
2019-05-17T03:47:44.498Z,18.03
2019-05-17T03:50:13.766Z,16.43
2019-05-17T03:52:44.285Z,17.23
2019-05-17T03:58:03.139Z,17.77
2019-05-17T04:00:34.872Z,17.90
2019-05-17T04:03:02.926Z,16.67
2019-05-17T04:05:33.369Z,15.50
2019-05-17T04:08:03.720Z,17.10
2019-05-17T04:10:33.354Z,17.37
2019-05-17T04:13:04.174Z,17.57
2019-05-17T04:15:33.016Z,17.60
2019-05-17T04:18:04.205Z,16.40
2019-05-17T04:20:33.235Z,16.63
2019-05-17T04:23:03.853Z,16.63
2019-05-17T04:25:33.515Z,16.17
2019-05-17T04:28:03.016Z,15.77
2019-05-17T04:30:32.725Z,16.30
2019-05-17T04:33:03.652Z,15.63
2019-05-17T04:35:32.787Z,16.40
2019-05-17T04:38:04.331Z,15.73
2019-05-17T04:40:34.082Z,16.80
2019-05-17T04:43:03.262Z,15.37
2019-05-17T04:45:33.509Z,14.53
2019-05-17T04:48:03.979Z,15.63
2019-05-17T04:50:33.711Z,15.80
2019-05-17T04:53:02.909Z,15.90
2019-05-17T04:55:34.100Z,15.47
2019-05-17T04:58:04.076Z,15.30
2019-05-17T05:00:34.031Z,15.10
2019-05-17T05:03:04.187Z,15.77
2019-05-17T05:05:33.449Z,15.17
2019-05-17T05:08:02.999Z,14.30
2019-05-17T05:10:33.773Z,16.27
2019-05-17T05:13:03.151Z,14.00
2019-05-17T05:15:44.200Z,15.33
2019-05-17T05:18:13.393Z,14.17
2019-05-17T05:20:43.608Z,13.90
2019-05-17T05:23:13.147Z,15.67
2019-05-17T05:25:43.075Z,14.27
2019-05-17T05:28:11.875Z,12.80
2019-05-17T05:30:42.301Z,14.63
2019-05-17T05:33:12.982Z,13.70
2019-05-17T05:35:42.498Z,14.67
2019-05-17T05:38:12.911Z,14.63
2019-05-17T05:40:42.743Z,13.23
2019-05-17T05:43:11.985Z,13.80
2019-05-17T05:45:41.658Z,13.07
2019-05-17T05:48:12.453Z,13.20
2019-05-17T05:50:42.567Z,12.20
2019-05-17T05:53:12.933Z,12.20
2019-05-17T05:55:42.842Z,13.60
2019-05-17T05:58:12.123Z,13.10
2019-05-17T06:00:42.654Z,11.67
2019-05-17T06:03:12.000Z,12.03
2019-05-17T06:05:42.270Z,12.43
2019-05-17T06:08:12.204Z,11.53
2019-05-17T06:10:42.607Z,11.33
2019-05-17T06:13:12.977Z,12.40
2019-05-17T06:15:42.929Z,12.23
2019-05-17T06:18:12.328Z,11.30
2019-05-17T06:20:41.794Z,12.00
2019-05-17T06:23:12.237Z,11.63
2019-05-17T06:25:43.144Z,11.87
2019-05-17T06:28:11.525Z,11.63
2019-05-17T06:30:42.680Z,11.40
2019-05-17T06:33:12.067Z,10.80
2019-05-17T06:35:42.392Z,10.70
2019-05-17T06:38:12.036Z,10.07
2019-05-17T06:40:42.137Z,10.40
2019-05-17T06:43:12.953Z,11.13
2019-05-17T06:45:41.837Z,11.97
2019-05-17T06:48:11.859Z,11.10
2019-05-17T06:50:42.968Z,11.00
2019-05-17T06:53:12.297Z,10.77
2019-05-17T06:55:42.400Z,9.10
2019-05-17T06:58:11.841Z,10.47
2019-05-17T07:00:40.593Z,10.20
2019-05-17T07:03:09.553Z,10.77
2019-05-17T07:05:50.197Z,10.13
2019-05-17T07:08:20.144Z,10.80
2019-05-17T07:10:50.273Z,10.57
2019-05-17T07:13:19.815Z,9.40
2019-05-17T07:15:50.959Z,10.93
2019-05-17T07:18:19.466Z,10.03
2019-05-17T07:20:50.000Z,10.30
2019-05-17T07:23:19.697Z,9.87
2019-05-17T07:25:50.403Z,10.50
2019-05-17T07:28:19.933Z,9.33
2019-05-17T07:30:50.341Z,10.70
2019-05-17T07:33:19.916Z,9.53
2019-05-17T07:35:50.122Z,9.73
2019-05-17T07:38:19.936Z,8.57
2019-05-17T07:40:50.123Z,8.30
2019-05-17T07:43:20.794Z,8.87
2019-05-17T07:45:49.637Z,8.47
2019-05-17T07:48:19.987Z,8.10
2019-05-17T07:50:50.213Z,8.73
2019-05-17T07:53:20.070Z,8.20
2019-05-17T07:55:50.640Z,8.90
2019-05-17T07:58:21.353Z,9.20
2019-05-17T08:00:51.125Z,8.80
2019-05-17T08:03:20.933Z,8.57
2019-05-17T08:05:50.554Z,8.83
2019-05-17T08:08:20.862Z,8.87
2019-05-17T08:10:51.086Z,7.80
2019-05-17T08:13:27.340Z,8.20
2019-05-17T08:15:50.206Z,9.17
2019-05-17T08:18:20.361Z,7.97
2019-05-17T08:20:50.176Z,7.60
2019-05-17T08:23:20.213Z,8.20
2019-05-17T08:25:53.698Z,8.27
2019-05-17T08:28:21.389Z,8.17
2019-05-17T08:30:50.199Z,7.50
2019-05-17T08:33:19.472Z,7.07
2019-05-17T08:35:49.485Z,7.53
2019-05-17T08:38:19.759Z,7.10
2019-05-17T08:40:50.750Z,6.43
2019-05-17T08:43:21.103Z,5.97
2019-05-17T08:45:50.148Z,6.03
2019-05-17T08:48:20.587Z,6.20
2019-05-17T08:50:49.482Z,6.37
2019-05-17T08:53:19.844Z,6.13
2019-05-17T08:55:50.089Z,5.33
2019-05-17T08:58:21.299Z,5.50
2019-05-17T09:00:50.470Z,6.10
2019-05-17T09:03:19.581Z,6.07
2019-05-17T09:05:52.082Z,5.80
2019-05-17T09:08:20.331Z,5.13
2019-05-17T09:10:50.424Z,5.13
2019-05-17T09:13:19.569Z,5.10
2019-05-17T09:15:49.436Z,4.20
2019-05-17T09:18:20.386Z,4.93
2019-05-17T09:20:49.513Z,4.80
2019-05-17T09:23:19.751Z,3.90
2019-05-17T09:25:50.088Z,4.00
2019-05-17T09:28:20.527Z,3.97
2019-05-17T09:30:50.693Z,3.83
2019-05-17T09:33:20.420Z,3.67
2019-05-17T09:35:50.040Z,3.90
2019-05-17T09:38:20.389Z,4.20
2019-05-17T09:40:50.506Z,4.13
2019-05-17T09:43:20.473Z,4.40
2019-05-17T09:45:50.845Z,4.60
2019-05-17T09:48:19.818Z,3.80
2019-05-17T09:50:50.427Z,4.40
2019-05-17T09:53:20.149Z,4.10
2019-05-17T09:55:49.756Z,3.93
2019-05-17T09:58:21.431Z,4.27
2019-05-17T10:00:49.507Z,4.00
2019-05-17T10:03:23.245Z,4.47
2019-05-17T10:05:49.599Z,3.67
2019-05-17T10:08:18.320Z,3.63
2019-05-17T10:11:02.252Z,3.70
2019-05-17T10:13:17.186Z,3.23
2019-05-17T10:15:45.649Z,3.57
2019-05-17T10:18:14.048Z,3.53
2019-05-17T10:20:42.460Z,2.87
2019-05-17T10:23:11.006Z,3.30
2019-05-17T10:25:39.978Z,3.20
2019-05-17T10:28:10.007Z,3.20
2019-05-17T10:30:39.807Z,3.00
2019-05-17T10:33:09.929Z,3.20
2019-05-17T10:35:40.736Z,3.40
2019-05-17T10:38:10.250Z,3.20
2019-05-17T10:40:40.941Z,3.00
2019-05-17T10:43:10.054Z,4.70
2019-05-17T10:45:40.158Z,3.13
2019-05-17T10:48:10.212Z,3.07
2019-05-17T10:50:40.715Z,3.10
2019-05-17T10:53:09.977Z,2.80
2019-05-17T10:55:39.706Z,2.90
2019-05-17T10:58:10.068Z,3.10
2019-05-17T11:00:41.163Z,2.90
2019-05-17T11:03:09.773Z,3.77
2019-05-17T11:05:40.283Z,3.57
2019-05-17T11:08:10.751Z,4.13
2019-05-17T11:10:39.426Z,3.90
2019-05-17T11:13:08.110Z,3.73
2019-05-17T11:15:36.535Z,3.17
2019-05-17T11:18:05.022Z,4.10
2019-05-17T11:20:33.567Z,3.13
2019-05-17T11:23:02.099Z,4.30
2019-05-17T11:25:30.602Z,3.70
2019-05-17T11:27:59.023Z,3.90
2019-05-17T11:30:27.416Z,3.80
2019-05-17T11:32:55.914Z,3.90
2019-05-17T11:35:24.837Z,3.90
2019-05-17T11:37:53.375Z,4.67
2019-05-17T11:40:22.099Z,3.90
2019-05-17T11:42:50.567Z,4.00
2019-05-17T11:45:27.222Z,3.60
2019-05-17T11:47:49.197Z,4.10
2019-05-17T11:50:17.739Z,3.70
2019-05-17T11:52:46.213Z,3.47
2019-05-17T11:55:15.170Z,3.90
2019-05-17T11:57:43.609Z,3.83
2019-05-17T12:00:13.022Z,4.57
2019-05-17T12:02:41.514Z,4.33
2019-05-17T12:05:10.258Z,4.07
2019-05-17T12:07:38.674Z,3.73
2019-05-17T12:10:08.509Z,4.10
2019-05-17T12:12:36.923Z,4.23
2019-05-17T12:15:07.370Z,4.63
2019-05-17T12:17:35.795Z,4.40
2019-05-17T12:20:06.158Z,4.50
2019-05-17T12:22:34.589Z,4.67
2019-05-17T12:25:03.754Z,4.00
2019-05-17T12:27:32.181Z,4.27
2019-05-17T12:30:00.620Z,4.60
2019-05-17T12:32:29.019Z,3.90
2019-05-17T12:34:57.459Z,4.07
2019-05-17T12:37:25.867Z,3.97
2019-05-17T12:39:54.388Z,4.87
2019-05-17T12:42:22.842Z,4.47
2019-05-17T12:44:51.273Z,3.93
2019-05-17T12:47:19.726Z,4.50
2019-05-17T12:49:48.117Z,4.73
2019-05-17T12:52:16.551Z,5.37
2019-05-17T12:54:45.011Z,4.70
2019-05-17T12:57:13.389Z,5.30
2019-05-17T12:59:41.890Z,4.97
2019-05-17T13:02:12.440Z,5.73
2019-05-17T13:04:40.503Z,5.27
2019-05-17T13:07:08.906Z,5.67
2019-05-17T13:09:37.427Z,5.83
2019-05-17T13:12:05.898Z,7.70
2019-05-17T13:14:34.327Z,5.70
2019-05-17T13:17:02.781Z,5.00
2019-05-17T13:19:31.196Z,5.43
2019-05-17T13:21:59.585Z,5.67
2019-05-17T13:24:28.014Z,5.20
2019-05-17T13:26:56.397Z,5.03
2019-05-17T13:29:24.913Z,5.60
2019-05-17T13:31:53.314Z,5.27
2019-05-17T13:34:21.718Z,5.37
2019-05-17T13:36:50.222Z,5.50
2019-05-17T13:39:18.646Z,5.57
2019-05-17T13:41:47.132Z,5.60
2019-05-17T13:44:15.680Z,5.37
2019-05-17T13:46:44.150Z,5.10
2019-05-17T13:49:12.577Z,6.07
2019-05-17T13:51:40.989Z,5.23
2019-05-17T13:54:09.552Z,5.47
2019-05-17T13:56:37.950Z,5.93
2019-05-17T13:59:06.423Z,6.00
2019-05-17T14:01:34.921Z,6.20
2019-05-17T14:04:03.337Z,6.20
2019-05-17T14:06:31.746Z,6.50
2019-05-17T14:09:00.141Z,6.50
2019-05-17T14:11:28.644Z,6.20
2019-05-17T14:13:57.062Z,5.80
2019-05-17T14:16:25.645Z,6.60
2019-05-17T14:18:54.031Z,6.30
2019-05-17T14:21:22.521Z,6.80
2019-05-17T14:23:50.979Z,6.63
2019-05-17T14:26:19.401Z,6.40
2019-05-17T14:28:47.878Z,6.33
2019-05-17T14:31:16.310Z,6.43
2019-05-17T14:33:44.745Z,6.20
2019-05-17T14:36:13.130Z,6.03
2019-05-17T14:38:41.611Z,6.60
2019-05-17T14:41:10.137Z,7.20
2019-05-17T14:43:38.520Z,6.47
2019-05-17T14:46:06.965Z,7.10
2019-05-17T14:48:35.512Z,7.20
2019-05-17T14:51:04.020Z,8.03
2019-05-17T14:53:32.418Z,6.80
2019-05-17T14:56:00.845Z,6.60
2019-05-17T14:58:29.263Z,7.27
2019-05-17T15:00:57.753Z,6.30
2019-05-17T15:03:26.174Z,7.63
2019-05-17T15:05:54.562Z,6.47
2019-05-17T15:08:23.055Z,7.13
2019-05-17T15:10:51.539Z,6.57
2019-05-17T15:13:19.981Z,8.30
2019-05-17T15:15:48.522Z,8.57
2019-05-17T15:18:16.953Z,7.40
2019-05-17T15:20:45.584Z,7.67
2019-05-17T15:23:14.069Z,9.07
2019-05-17T15:25:42.483Z,7.60
2019-05-17T15:28:10.992Z,7.67
2019-05-17T15:30:39.465Z,7.30
2019-05-17T15:33:08.735Z,8.23
2019-05-17T15:35:37.132Z,7.63
2019-05-17T15:38:05.670Z,7.40
2019-05-17T15:40:34.109Z,7.77
2019-05-17T15:43:02.548Z,10.00
2019-05-17T15:45:30.987Z,9.27
2019-05-17T15:47:59.405Z,9.17
2019-05-17T15:50:27.943Z,8.43
2019-05-17T15:52:56.424Z,8.40
2019-05-17T15:55:25.010Z,8.13
2019-05-17T15:57:53.410Z,8.40
2019-05-17T16:00:21.976Z,7.67
2019-05-17T16:02:50.534Z,7.43
2019-05-17T16:05:19.107Z,7.97
2019-05-17T16:07:47.589Z,8.43
2019-05-17T16:10:16.345Z,7.57
2019-05-17T16:13:00.813Z,7.77
2019-05-17T16:15:15.124Z,7.20
2019-05-17T16:17:43.616Z,7.30
2019-05-17T16:20:16.705Z,7.07
2019-05-17T16:22:43.733Z,7.93
2019-05-17T16:25:12.379Z,7.00
2019-05-17T16:27:40.942Z,7.47
2019-05-17T16:30:09.901Z,6.90
2019-05-17T16:32:38.316Z,7.40
2019-05-17T16:35:06.873Z,7.40
2019-05-17T16:37:35.280Z,7.23
2019-05-17T16:40:05.227Z,7.27
2019-05-17T16:42:33.676Z,12.53
2019-05-17T16:45:02.391Z,8.10
2019-05-17T16:47:30.974Z,7.70
2019-05-17T16:49:59.445Z,7.00
2019-05-17T16:52:27.915Z,7.20
2019-05-17T16:54:56.379Z,7.13
2019-05-17T16:57:24.835Z,7.10
2019-05-17T16:59:53.297Z,7.40
2019-05-17T17:02:21.877Z,7.13
2019-05-17T17:04:50.391Z,7.07
2019-05-17T17:07:18.894Z,6.33
2019-05-17T17:09:47.367Z,6.77
2019-05-17T17:12:15.829Z,6.87
2019-05-17T17:14:44.257Z,6.60
2019-05-17T17:17:13.483Z,6.70
2019-05-17T17:19:42.204Z,6.90
2019-05-17T17:22:10.615Z,7.50
2019-05-17T17:24:39.080Z,6.13
2019-05-17T17:27:07.497Z,7.20
2019-05-17T17:29:35.984Z,7.00
2019-05-17T17:32:04.456Z,7.73
2019-05-17T17:34:32.857Z,6.97
2019-05-17T17:37:01.337Z,7.37
2019-05-17T17:39:29.761Z,7.10
2019-05-17T17:41:58.173Z,7.43
2019-05-17T17:44:26.654Z,6.97
2019-05-17T17:46:55.054Z,6.03
2019-05-17T17:49:23.497Z,6.90
2019-05-17T17:51:51.893Z,6.10
2019-05-17T17:54:20.302Z,6.57
2019-05-17T17:56:48.862Z,6.30
2019-05-17T17:59:17.351Z,6.80
2019-05-17T18:01:45.963Z,6.63
2019-05-17T18:04:14.527Z,6.60
2019-05-17T18:06:42.968Z,6.10
2019-05-17T18:09:11.381Z,6.00
2019-05-17T18:11:39.943Z,7.60
2019-05-17T18:14:13.459Z,7.07
2019-05-17T18:16:38.567Z,6.90
2019-05-17T18:19:07.125Z,6.27
2019-05-17T18:21:35.562Z,6.87
2019-05-17T18:24:04.217Z,5.60
2019-05-17T18:26:32.617Z,5.70
2019-05-17T18:29:01.045Z,6.03
2019-05-17T18:31:29.464Z,6.77
2019-05-17T18:33:57.965Z,5.83
2019-05-17T18:36:26.358Z,6.33
2019-05-17T18:38:55.209Z,5.67
2019-05-17T18:41:23.710Z,6.10
2019-05-17T18:43:52.274Z,5.20
2019-05-17T18:46:21.274Z,5.70
2019-05-17T18:48:49.738Z,5.60
2019-05-17T18:51:18.218Z,5.27
2019-05-17T18:53:46.759Z,5.47
2019-05-17T18:56:15.167Z,6.27
2019-05-17T18:58:43.608Z,9.00
2019-05-17T19:01:12.137Z,6.87
2019-05-17T19:03:40.627Z,8.00
2019-05-17T19:06:09.111Z,8.60
2019-05-17T19:08:37.575Z,9.90
2019-05-17T19:11:06.280Z,6.50
2019-05-17T19:13:34.715Z,6.30
2019-05-17T19:16:03.277Z,15.90
2019-05-17T19:18:31.753Z,13.60
2019-05-17T19:21:00.156Z,8.97
2019-05-17T19:23:28.660Z,7.70
2019-05-17T19:25:57.064Z,7.73
2019-05-17T19:28:25.548Z,6.13
2019-05-17T19:30:53.965Z,5.60
2019-05-17T19:33:22.445Z,5.90
2019-05-17T19:35:50.950Z,5.77
2019-05-17T19:38:19.441Z,6.33
2019-05-17T19:40:47.990Z,6.00
2019-05-17T19:43:16.420Z,5.97
2019-05-17T19:45:45.305Z,5.47
2019-05-17T19:48:13.796Z,6.33
2019-05-17T19:50:42.331Z,5.50
2019-05-17T19:53:10.894Z,5.83
2019-05-17T19:55:39.319Z,4.90
2019-05-17T19:58:07.748Z,6.43
2019-05-17T20:00:36.316Z,5.00
2019-05-17T20:03:04.902Z,4.80
2019-05-17T20:05:33.317Z,5.23
2019-05-17T20:08:01.738Z,4.80
2019-05-17T20:10:30.231Z,5.93
2019-05-17T20:12:58.687Z,9.40
2019-05-17T20:15:34.583Z,6.93
2019-05-17T20:17:57.219Z,5.93
2019-05-17T20:20:25.622Z,6.03
2019-05-17T20:22:54.112Z,6.00
2019-05-17T20:25:23.844Z,6.40
2019-05-17T20:27:52.409Z,6.33
2019-05-17T20:30:20.997Z,5.80
2019-05-17T20:32:49.487Z,5.70
2019-05-17T20:35:18.166Z,6.23
2019-05-17T20:37:46.540Z,6.30
2019-05-17T20:40:16.291Z,5.87
2019-05-17T20:42:44.712Z,7.40
2019-05-17T20:45:13.340Z,7.13
2019-05-17T20:47:41.846Z,7.90
2019-05-17T20:50:11.083Z,7.13
2019-05-17T20:52:39.587Z,8.87
2019-05-17T20:55:09.328Z,8.37
2019-05-17T20:57:37.760Z,7.63
2019-05-17T21:00:09.926Z,6.27
2019-05-17T21:02:38.318Z,7.00
2019-05-17T21:05:07.089Z,6.60
2019-05-17T21:07:35.521Z,7.10
2019-05-17T21:10:08.153Z,6.20
2019-05-17T21:12:36.583Z,6.90
2019-05-17T21:15:06.716Z,7.13
2019-05-17T21:17:35.130Z,6.77
2019-05-17T21:20:04.893Z,6.40
2019-05-17T21:22:33.296Z,6.83
2019-05-17T21:25:01.746Z,6.20
2019-05-17T21:27:30.255Z,6.80
2019-05-17T21:29:58.668Z,6.47
2019-05-17T21:32:27.066Z,6.13
2019-05-17T21:34:55.509Z,7.30
2019-05-17T21:37:23.993Z,6.70
2019-05-17T21:39:52.400Z,5.90
2019-05-17T21:42:20.853Z,6.07
2019-05-17T21:44:49.369Z,6.40
2019-05-17T21:47:17.782Z,5.80
2019-05-17T21:49:46.211Z,6.43
2019-05-17T21:52:14.634Z,6.70
2019-05-17T21:54:43.045Z,5.73
2019-05-17T21:57:11.464Z,6.90
2019-05-17T21:59:39.908Z,10.87
2019-05-17T22:02:08.472Z,13.53
2019-05-17T22:04:37.712Z,7.20
2019-05-17T22:07:06.327Z,7.00
2019-05-17T22:09:34.752Z,7.20
2019-05-17T22:12:04.869Z,6.90
2019-05-17T22:14:33.345Z,6.50
2019-05-17T22:17:01.835Z,6.90
2019-05-17T22:19:30.236Z,6.70
2019-05-17T22:21:58.636Z,6.43
2019-05-17T22:24:27.039Z,6.40
2019-05-17T22:26:55.474Z,7.13
2019-05-17T22:29:23.888Z,6.60
2019-05-17T22:31:52.305Z,6.97
2019-05-17T22:34:20.701Z,6.90
2019-05-17T22:36:49.119Z,6.80
2019-05-17T22:39:17.633Z,7.30
2019-05-17T22:41:46.054Z,6.37
2019-05-17T22:44:14.487Z,7.07
2019-05-17T22:46:42.917Z,6.80
2019-05-17T22:49:11.322Z,7.10
2019-05-17T22:51:39.762Z,7.17
2019-05-17T22:54:08.176Z,6.87
2019-05-17T22:56:36.578Z,6.83
2019-05-17T22:59:05.159Z,6.67
2019-05-17T23:01:33.609Z,6.93
2019-05-17T23:04:02.052Z,6.83
2019-05-17T23:06:30.451Z,7.00
2019-05-17T23:08:58.858Z,7.57
2019-05-17T23:11:27.265Z,7.97
2019-05-17T23:13:55.675Z,8.63
2019-05-17T23:16:24.081Z,8.60
2019-05-17T23:18:56.703Z,7.90
2019-05-17T23:21:25.112Z,8.40
2019-05-17T23:23:53.528Z,8.07
2019-05-17T23:26:22.016Z,7.93
2019-05-17T23:28:50.448Z,8.97
2019-05-17T23:31:18.853Z,8.03
2019-05-17T23:33:47.256Z,8.20
2019-05-17T23:36:15.666Z,7.53
2019-05-17T23:38:44.065Z,7.40
2019-05-17T23:41:12.482Z,7.30
2019-05-17T23:43:40.985Z,8.13
2019-05-17T23:46:09.393Z,6.70
2019-05-17T23:48:37.844Z,7.80
2019-05-17T23:51:06.267Z,7.80
2019-05-17T23:53:34.664Z,7.50
2019-05-17T23:56:03.100Z,7.47
2019-05-17T23:58:31.524Z,7.13
